This is the latest recevied weather packets stored in our database for station/object M0UPS-13. If no packets are shown the sender has not sent any weather packets the latest 10 day(s).
| Time | Temp. | Humidity | Pressure | Rain* | Wind** | Luminosity | Snow |
|---|---|---|---|---|---|---|---|
| 1777829102 | 18.33° C | 58% | 1009.2 hPa | 0 mm | - | 58 W/m² | - |
| 1777828802 | 18.33° C | 57% | 1009.3 hPa | 0 mm | - | 65 W/m² | - |
| 1777828502 | 18.89° C | 58% | 1009.2 hPa | 0 mm | - | 107 W/m² | - |
| 1777828202 | 18.89° C | 57% | 1009.3 hPa | 0 mm | - | 88 W/m² | - |
| 1777827902 | 18.89° C | 58% | 1009.2 hPa | 0 mm | - | 102 W/m² | - |
| 1777827602 | 18.89° C | 58% | 1009.2 hPa | 0 mm | - | 99 W/m² | - |
| 1777827302 | 18.89° C | 58% | 1009.3 hPa | 0 mm | - | 172 W/m² | - |
| 1777827002 | 18.89° C | 58% | 1009.1 hPa | 0 mm | - | 174 W/m² | - |
| 1777826702 | 18.89° C | 56% | 1009.3 hPa | 0 mm | - | 92 W/m² | - |
| 1777826402 | 18.89° C | 57% | 1009.2 hPa | 0 mm | - | 176 W/m² | - |
| 1777826102 | 19.44° C | 55% | 1009.2 hPa | 0 mm | - | 223 W/m² | - |
| 1777825802 | 20° C | 56% | 1009.3 hPa | 0 mm | - | 129 W/m² | - |
| 1777825502 | 19.44° C | 55% | 1009.3 hPa | 0 mm | - | 288 W/m² | - |
| 1777825203 | 20° C | 55% | 1009.4 hPa | 0 mm | - | 307 W/m² | - |
| 1777824902 | 19.44° C | 57% | 1009.4 hPa | 0 mm | - | 320 W/m² | - |
| 1777824603 | 18.89° C | 57% | 1009.3 hPa | 0 mm | - | 307 W/m² | - |
| 1777824302 | 19.44° C | 57% | 1009.2 hPa | 0 mm | - | 134 W/m² | - |
| 1777824002 | 20° C | 55% | 1009.2 hPa | 0 mm | - | 161 W/m² | - |
| 1777823702 | 20.56° C | 53% | 1009.3 hPa | 0 mm | - | 332 W/m² | - |
| 1777823403 | 20° C | 53% | 1009.4 hPa | 0 mm | - | 379 W/m² | - |
| 1777823103 | 20° C | 53% | 1009.3 hPa | 0 mm | - | 434 W/m² | - |
| 1777822802 | 19.44° C | 56% | 1009.2 hPa | 0 mm | - | 396 W/m² | - |
| 1777822502 | 20° C | 55% | 1009.2 hPa | 0 mm | - | 212 W/m² | - |
| 1777822202 | 20.56° C | 53% | 1009.5 hPa | 0 mm | - | 170 W/m² | - |
| 1777821902 | 20.56° C | 53% | 1009.4 hPa | 0 mm | - | 292 W/m² | - |
* Rain latest hour (hover to see other rain measurements)
** Current wind speed in m/s (hover to see current wind gust speed)